createdAt,value
2017-09-23T00:01:10.526Z,14.90
2017-09-23T00:03:37.960Z,14.90
2017-09-23T00:06:05.400Z,14.90
2017-09-23T00:08:32.848Z,14.90
2017-09-23T00:11:00.283Z,14.90
2017-09-23T00:13:28.494Z,14.90
2017-09-23T00:15:55.924Z,14.90
2017-09-23T00:18:24.121Z,14.90
2017-09-23T00:20:52.330Z,14.90
2017-09-23T00:23:19.756Z,14.90
2017-09-23T00:25:47.968Z,14.70
2017-09-23T00:28:15.391Z,14.70
2017-09-23T00:30:43.618Z,14.60
2017-09-23T00:33:11.059Z,14.60
2017-09-23T00:35:38.485Z,14.60
2017-09-23T00:38:05.926Z,14.60
2017-09-23T00:40:33.374Z,14.60
2017-09-23T00:43:00.816Z,14.70
2017-09-23T00:45:28.237Z,14.60
2017-09-23T00:47:55.690Z,14.70
2017-09-23T00:50:23.129Z,14.70
2017-09-23T00:52:50.589Z,14.70
2017-09-23T00:55:18.026Z,14.70
2017-09-23T00:57:45.471Z,14.70
2017-09-23T01:00:13.673Z,14.70
2017-09-23T01:02:41.123Z,14.70
2017-09-23T01:05:08.586Z,14.70
2017-09-23T01:07:36.034Z,14.60
2017-09-23T01:10:04.241Z,14.60
2017-09-23T01:12:31.680Z,14.60
2017-09-23T01:14:59.880Z,14.70
2017-09-23T01:17:27.871Z,14.70
2017-09-23T01:19:55.358Z,14.70
2017-09-23T01:33:53.624Z,14.60
2017-09-23T01:36:21.081Z,14.50
2017-09-23T01:38:48.517Z,14.60
2017-09-23T01:41:15.971Z,14.60
2017-09-23T01:43:43.439Z,14.60
2017-09-23T01:46:10.884Z,14.60
2017-09-23T01:48:38.349Z,14.60
2017-09-23T01:51:05.812Z,14.60
2017-09-23T01:53:33.288Z,14.60
2017-09-23T01:56:00.747Z,14.60
2017-09-23T01:58:28.212Z,14.50
2017-09-23T02:00:55.660Z,14.60
2017-09-23T02:03:23.131Z,14.60
2017-09-23T02:05:50.593Z,14.60
2017-09-23T02:08:18.058Z,14.60
2017-09-23T02:10:45.523Z,14.60
2017-09-23T02:13:12.977Z,14.60
2017-09-23T02:15:40.424Z,14.60
2017-09-23T02:18:07.884Z,14.60
2017-09-23T02:20:35.340Z,14.60
2017-09-23T02:23:02.789Z,14.60
2017-09-23T02:25:30.244Z,14.60
2017-09-23T02:27:57.692Z,14.70
2017-09-23T02:30:25.925Z,14.60
2017-09-23T02:32:53.376Z,14.60
2017-09-23T02:35:20.821Z,14.60
2017-09-23T02:37:48.285Z,14.60
2017-09-23T02:40:15.733Z,14.60
2017-09-23T02:42:43.188Z,14.60
2017-09-23T02:45:10.649Z,14.60
2017-09-23T02:47:38.876Z,14.60
2017-09-23T02:50:06.333Z,14.60
2017-09-23T02:52:33.804Z,14.60
2017-09-23T02:55:01.260Z,14.60
2017-09-23T02:57:28.712Z,14.60
2017-09-23T02:59:56.181Z,14.60
2017-09-23T03:02:23.632Z,14.50
2017-09-23T03:04:51.093Z,14.50
2017-09-23T03:07:18.534Z,14.60
2017-09-23T03:09:46.764Z,14.60
2017-09-23T03:12:14.228Z,14.60
2017-09-23T03:14:41.692Z,14.60
2017-09-23T03:17:09.912Z,14.60
2017-09-23T03:19:38.140Z,14.60
2017-09-23T03:22:05.600Z,14.60
2017-09-23T03:24:33.065Z,14.60
2017-09-23T03:27:00.525Z,14.60
2017-09-23T03:29:27.974Z,14.60
2017-09-23T03:31:55.438Z,14.60
2017-09-23T03:34:22.898Z,14.60
2017-09-23T03:36:50.360Z,14.70
2017-09-23T03:39:17.824Z,14.60
2017-09-23T03:41:45.284Z,14.60
2017-09-23T03:44:12.728Z,14.60
2017-09-23T03:46:40.207Z,14.60
2017-09-23T03:49:07.656Z,14.60
2017-09-23T03:51:35.103Z,14.60
2017-09-23T03:54:03.327Z,14.60
2017-09-23T03:56:30.780Z,14.60
2017-09-23T03:58:58.240Z,14.60
2017-09-23T04:01:25.698Z,14.50
2017-09-23T04:03:53.164Z,14.50
2017-09-23T04:06:20.621Z,14.50
2017-09-23T04:08:48.076Z,14.50
2017-09-23T04:11:15.524Z,14.50
2017-09-23T04:13:43.772Z,14.60
2017-09-23T04:16:11.216Z,14.60
2017-09-23T04:18:38.668Z,14.60
2017-09-23T04:21:06.128Z,14.60
2017-09-23T04:23:33.585Z,14.60
2017-09-23T04:26:01.042Z,14.60
2017-09-23T04:28:28.495Z,14.60
2017-09-23T04:30:56.028Z,14.60
2017-09-23T04:33:23.485Z,14.60
2017-09-23T04:35:50.964Z,14.70
2017-09-23T04:38:19.186Z,14.70
2017-09-23T04:40:46.633Z,14.70
2017-09-23T04:43:14.091Z,14.70
2017-09-23T04:45:41.552Z,14.70
2017-09-23T04:48:09.022Z,14.70
2017-09-23T04:50:36.475Z,14.70
2017-09-23T04:53:04.696Z,14.60
2017-09-23T04:55:32.158Z,14.60
2017-09-23T04:57:59.635Z,14.70
2017-09-23T05:00:27.088Z,14.60
2017-09-23T05:02:54.536Z,14.60
2017-09-23T05:05:22.000Z,14.70
2017-09-23T05:07:49.457Z,14.70
2017-09-23T05:10:16.912Z,14.70
2017-09-23T05:12:44.378Z,14.70
2017-09-23T05:15:11.835Z,14.70
2017-09-23T05:17:39.297Z,14.70
2017-09-23T05:20:06.771Z,14.70
2017-09-23T05:22:34.229Z,14.70
2017-09-23T05:25:01.682Z,14.60
2017-09-23T05:27:29.136Z,14.60
2017-09-23T05:29:56.592Z,14.60
2017-09-23T05:32:24.828Z,14.60
2017-09-23T05:34:52.292Z,14.60
2017-09-23T05:37:19.761Z,14.60
2017-09-23T05:39:47.220Z,14.60
2017-09-23T05:42:14.683Z,14.60
2017-09-23T05:44:42.140Z,14.60
2017-09-23T05:47:09.621Z,14.60
2017-09-23T05:49:37.068Z,14.60
2017-09-23T05:52:04.519Z,14.50
2017-09-23T05:54:31.980Z,14.60
2017-09-23T05:56:59.437Z,14.60
2017-09-23T05:59:26.897Z,14.60
2017-09-23T06:01:54.353Z,14.60
2017-09-23T06:04:21.825Z,14.60
2017-09-23T06:06:49.284Z,14.60
2017-09-23T06:09:16.752Z,14.60
2017-09-23T06:11:44.208Z,14.60
2017-09-23T06:14:11.688Z,14.60
2017-09-23T06:16:39.141Z,14.60
2017-09-23T06:19:06.592Z,14.60
2017-09-23T06:21:34.059Z,14.60
2017-09-23T06:24:01.511Z,14.60
2017-09-23T06:26:28.988Z,14.60
2017-09-23T06:28:56.444Z,14.60
2017-09-23T06:31:23.904Z,14.60
2017-09-23T06:33:51.369Z,14.60
2017-09-23T06:36:18.860Z,14.60
2017-09-23T06:38:46.346Z,14.60
2017-09-23T06:41:13.801Z,14.60
2017-09-23T06:43:41.268Z,14.60
2017-09-23T06:46:08.714Z,14.60
2017-09-23T06:48:36.187Z,14.60
2017-09-23T06:51:03.665Z,14.70
2017-09-23T06:53:31.124Z,14.70
2017-09-23T06:55:58.580Z,14.70
2017-09-23T06:58:26.052Z,14.70
2017-09-23T07:00:53.504Z,14.70
2017-09-23T07:03:20.969Z,14.70
2017-09-23T07:05:48.422Z,14.70
2017-09-23T07:08:15.899Z,14.70
2017-09-23T07:10:43.343Z,14.70
2017-09-23T07:13:10.796Z,14.70
2017-09-23T07:15:38.253Z,14.70
2017-09-23T07:18:05.704Z,14.70
2017-09-23T07:20:33.168Z,14.70
2017-09-23T07:23:00.617Z,14.70
2017-09-23T07:25:28.081Z,14.70
2017-09-23T07:27:55.532Z,14.70
2017-09-23T07:30:22.998Z,14.80
2017-09-23T07:32:50.456Z,14.80
2017-09-23T07:35:18.676Z,14.80
2017-09-23T07:37:46.136Z,14.80
2017-09-23T07:40:13.588Z,14.80
2017-09-23T07:42:41.828Z,14.80
2017-09-23T07:45:10.052Z,14.80
2017-09-23T07:47:37.520Z,14.80
2017-09-23T07:50:05.752Z,14.80
2017-09-23T07:52:33.977Z,14.90
2017-09-23T07:55:01.445Z,14.80
2017-09-23T07:57:28.902Z,14.90
2017-09-23T07:59:56.376Z,14.90
2017-09-23T08:02:23.923Z,14.90
2017-09-23T08:04:51.500Z,14.90
2017-09-23T08:07:18.973Z,15.00
2017-09-23T08:09:46.418Z,15.00
2017-09-23T08:12:13.893Z,15.00
2017-09-23T08:14:41.355Z,15.00
2017-09-23T08:17:08.812Z,15.00
2017-09-23T08:19:36.275Z,15.10
2017-09-23T08:22:04.089Z,15.10
2017-09-23T08:24:32.344Z,15.10
2017-09-23T08:26:59.786Z,15.10
2017-09-23T08:29:27.231Z,15.10
2017-09-23T08:31:54.729Z,15.10
2017-09-23T08:34:22.300Z,15.10
2017-09-23T08:36:50.996Z,15.20
2017-09-23T08:39:18.566Z,15.20
2017-09-23T08:41:46.779Z,15.20
2017-09-23T08:44:14.290Z,15.20
2017-09-23T08:46:41.853Z,15.30
2017-09-23T08:49:09.311Z,15.30
2017-09-23T08:51:36.778Z,15.30
2017-09-23T08:54:04.224Z,15.30
2017-09-23T08:56:31.784Z,15.40
2017-09-23T08:58:59.237Z,15.40
2017-09-23T09:01:26.895Z,15.40
2017-09-23T09:03:54.496Z,15.40
2017-09-23T09:06:21.961Z,15.50
2017-09-23T09:08:49.416Z,15.50
2017-09-23T09:11:16.988Z,15.60
2017-09-23T09:13:44.440Z,15.60
2017-09-23T09:16:12.034Z,15.60
2017-09-23T09:18:40.266Z,15.60
2017-09-23T09:21:07.717Z,15.60
2017-09-23T09:23:35.188Z,15.70
2017-09-23T09:26:02.748Z,15.70
2017-09-23T09:28:30.264Z,15.70
2017-09-23T09:30:57.819Z,15.70
2017-09-23T09:33:25.304Z,15.70
2017-09-23T09:35:54.264Z,15.80
2017-09-23T09:38:21.732Z,15.80
2017-09-23T09:40:49.189Z,15.80
2017-09-23T09:43:16.730Z,15.90
2017-09-23T09:45:44.200Z,15.90
2017-09-23T09:48:11.693Z,16.00
2017-09-23T09:50:39.169Z,16.10
2017-09-23T09:53:06.632Z,16.10
2017-09-23T09:58:37.605Z,16.20
2017-09-23T10:01:05.072Z,16.20
2017-09-23T10:03:33.288Z,16.30
2017-09-23T10:06:01.711Z,16.30
2017-09-23T10:08:29.377Z,16.30
2017-09-23T10:10:56.824Z,16.40
2017-09-23T10:13:36.197Z,16.40
2017-09-23T10:16:03.753Z,16.50
2017-09-23T10:18:31.227Z,16.50
2017-09-23T10:20:58.676Z,16.50
2017-09-23T10:23:26.137Z,16.60
2017-09-23T10:25:53.599Z,16.60
2017-09-23T10:28:21.072Z,16.60
2017-09-23T10:30:48.557Z,16.70
2017-09-23T10:33:16.020Z,16.70
2017-09-23T10:35:43.497Z,16.70
2017-09-23T10:38:11.715Z,16.70
2017-09-23T10:40:39.176Z,16.70
2017-09-23T10:43:06.641Z,16.60
2017-09-23T10:45:34.105Z,16.60
2017-09-23T10:48:01.586Z,16.60
2017-09-23T10:50:29.043Z,16.60
2017-09-23T10:52:56.813Z,16.60
2017-09-23T10:55:24.297Z,16.60
2017-09-23T10:57:51.785Z,16.60
2017-09-23T11:00:19.251Z,16.60
2017-09-23T11:02:47.488Z,16.90
2017-09-23T11:05:14.943Z,16.90
2017-09-23T11:07:42.639Z,17.10
2017-09-23T11:10:10.879Z,17.40
2017-09-23T11:12:38.359Z,17.40
2017-09-23T11:15:05.819Z,17.50
2017-09-23T11:17:33.291Z,17.50
2017-09-23T11:20:00.745Z,17.60
2017-09-23T11:22:28.244Z,17.70
2017-09-23T11:24:55.697Z,17.90
2017-09-23T11:27:23.159Z,18.10
2017-09-23T11:29:50.615Z,18.20
2017-09-23T11:32:18.068Z,18.40
2017-09-23T11:34:45.520Z,18.50
2017-09-23T11:37:12.992Z,18.50
2017-09-23T11:39:40.457Z,18.50
2017-09-23T11:42:07.913Z,18.50
2017-09-23T11:44:35.378Z,18.50
2017-09-23T11:47:02.825Z,18.60
2017-09-23T11:49:30.305Z,18.60
2017-09-23T11:51:57.765Z,18.70
2017-09-23T11:54:25.225Z,18.90
2017-09-23T11:56:52.680Z,19.00
2017-09-23T11:59:20.138Z,19.20
2017-09-23T12:01:47.600Z,19.30
2017-09-23T12:04:15.060Z,19.40
2017-09-23T12:06:42.524Z,19.50
2017-09-23T12:09:09.981Z,19.60
2017-09-23T12:11:37.443Z,19.70
2017-09-23T12:14:04.898Z,19.80
2017-09-23T12:16:32.371Z,19.90
2017-09-23T12:18:59.824Z,20.00
2017-09-23T12:21:27.275Z,20.10
2017-09-23T12:23:55.499Z,20.20
2017-09-23T12:26:22.956Z,20.20
2017-09-23T12:28:50.424Z,20.30
2017-09-23T12:31:17.876Z,20.50
2017-09-23T12:33:45.336Z,20.50
2017-09-23T12:36:12.794Z,20.60
2017-09-23T12:38:40.276Z,20.60
2017-09-23T12:41:07.729Z,20.60
2017-09-23T12:43:35.180Z,20.60
2017-09-23T12:46:02.640Z,20.60
2017-09-23T12:48:30.097Z,20.60
2017-09-23T12:50:57.570Z,20.70
2017-09-23T12:53:25.029Z,20.70
2017-09-23T12:55:52.512Z,20.80
2017-09-23T12:58:19.971Z,20.80
2017-09-23T13:00:47.431Z,20.80
2017-09-23T13:03:14.901Z,21.00
2017-09-23T13:05:42.348Z,21.00
2017-09-23T13:08:09.808Z,21.00
2017-09-23T13:10:37.273Z,21.00
2017-09-23T13:13:04.725Z,21.00
2017-09-23T13:15:32.166Z,21.10
2017-09-23T13:18:00.394Z,21.10
2017-09-23T13:20:27.851Z,21.10
2017-09-23T13:22:55.318Z,21.00
2017-09-23T13:25:22.775Z,21.00
2017-09-23T13:27:50.225Z,21.00
2017-09-23T13:30:17.694Z,21.10
2017-09-23T13:32:45.148Z,21.10
2017-09-23T13:35:12.620Z,21.20
2017-09-23T13:37:40.081Z,21.20
2017-09-23T13:40:07.537Z,21.30
2017-09-23T13:42:34.989Z,21.30
2017-09-23T13:45:02.473Z,21.40
2017-09-23T13:47:29.931Z,21.40
2017-09-23T13:49:57.385Z,21.30
2017-09-23T13:52:24.853Z,21.30
2017-09-23T13:54:52.303Z,21.30
2017-09-23T13:57:19.749Z,21.30
2017-09-23T13:59:47.955Z,21.30
2017-09-23T14:02:15.424Z,21.30
2017-09-23T14:04:42.887Z,21.20
2017-09-23T14:07:10.349Z,21.10
2017-09-23T14:09:37.796Z,21.00
2017-09-23T14:12:05.245Z,21.00
2017-09-23T14:14:33.462Z,21.00
2017-09-23T14:17:01.730Z,21.00
2017-09-23T14:19:29.189Z,21.00
2017-09-23T14:21:56.643Z,21.10
2017-09-23T14:24:24.104Z,21.10
2017-09-23T14:26:51.560Z,21.20
2017-09-23T14:29:19.805Z,21.40
2017-09-23T14:31:47.260Z,21.30
2017-09-23T14:34:14.716Z,21.40
2017-09-23T14:36:42.185Z,21.40
2017-09-23T14:39:09.635Z,21.40
2017-09-23T14:41:37.100Z,21.50
2017-09-23T14:44:04.559Z,21.50
2017-09-23T14:46:32.048Z,21.50
2017-09-23T14:48:59.501Z,21.50
2017-09-23T14:51:26.981Z,21.50
2017-09-23T14:53:54.444Z,21.60
2017-09-23T14:56:21.905Z,21.60
2017-09-23T14:58:49.374Z,21.60
2017-09-23T15:01:16.832Z,21.60
2017-09-23T15:03:44.293Z,21.50
2017-09-23T15:06:11.772Z,21.50
2017-09-23T15:08:40.012Z,21.30
2017-09-23T15:11:07.465Z,21.30
2017-09-23T15:13:34.952Z,21.20
2017-09-23T15:16:02.412Z,21.20
2017-09-23T15:18:29.864Z,21.20
2017-09-23T15:20:57.312Z,21.20
2017-09-23T15:23:24.759Z,21.20
2017-09-23T15:25:52.236Z,21.20
2017-09-23T15:28:19.696Z,21.10
2017-09-23T15:30:47.169Z,21.20
2017-09-23T15:33:14.623Z,21.10
2017-09-23T15:35:42.098Z,21.10
2017-09-23T15:38:09.567Z,21.10
2017-09-23T15:40:37.035Z,21.10
2017-09-23T15:43:04.492Z,21.10
2017-09-23T15:45:31.938Z,21.00
2017-09-23T15:47:59.413Z,20.90
2017-09-23T15:50:26.867Z,21.00
2017-09-23T15:52:54.323Z,20.90
2017-09-23T15:55:21.781Z,20.90
2017-09-23T15:57:49.245Z,20.80
2017-09-23T16:00:16.703Z,20.80
2017-09-23T16:02:44.179Z,20.80
2017-09-23T16:05:11.645Z,20.70
2017-09-23T16:07:39.145Z,20.60
2017-09-23T16:10:06.605Z,20.60
2017-09-23T16:12:34.060Z,20.60
2017-09-23T16:15:01.520Z,20.50
2017-09-23T16:17:28.981Z,20.50
2017-09-23T16:19:56.464Z,20.40
2017-09-23T16:22:23.976Z,20.40
2017-09-23T16:24:51.453Z,20.40
2017-09-23T16:27:18.913Z,20.30
2017-09-23T16:29:46.413Z,20.30
2017-09-23T16:32:13.881Z,20.20
2017-09-23T16:34:41.328Z,20.20
2017-09-23T16:37:08.795Z,20.10
2017-09-23T16:39:37.011Z,20.10
2017-09-23T16:42:05.237Z,20.00
2017-09-23T16:44:32.693Z,20.00
2017-09-23T16:47:00.148Z,19.90
2017-09-23T16:49:27.615Z,19.90
2017-09-23T16:51:55.098Z,19.80
2017-09-23T16:54:22.552Z,19.80
2017-09-23T16:56:50.040Z,19.80
2017-09-23T16:59:17.525Z,19.70
2017-09-23T17:01:45.744Z,19.60
2017-09-23T17:04:13.207Z,19.60
2017-09-23T17:06:40.665Z,19.60
2017-09-23T17:09:08.156Z,19.50
2017-09-23T17:11:35.604Z,19.50
2017-09-23T17:14:03.092Z,19.40
2017-09-23T17:16:30.540Z,19.40
2017-09-23T17:18:58.009Z,19.30
2017-09-23T17:21:25.471Z,19.30
2017-09-23T17:23:53.001Z,19.20
2017-09-23T17:26:20.473Z,19.10
2017-09-23T17:28:47.919Z,19.10
2017-09-23T17:31:15.384Z,19.10
2017-09-23T17:33:42.847Z,19.00
2017-09-23T17:36:10.331Z,19.00
2017-09-23T17:38:37.787Z,18.90
2017-09-23T17:41:05.252Z,18.90
2017-09-23T17:43:32.725Z,18.80
2017-09-23T17:46:00.180Z,18.70
2017-09-23T17:48:27.640Z,18.70
2017-09-23T17:50:55.096Z,18.60
2017-09-23T17:53:22.552Z,18.60
2017-09-23T17:55:50.011Z,18.50
2017-09-23T17:58:17.494Z,18.50
2017-09-23T18:00:44.975Z,18.40
2017-09-23T18:03:12.400Z,18.30
2017-09-23T18:05:39.864Z,18.20
2017-09-23T18:08:07.325Z,18.20
2017-09-23T18:10:34.788Z,18.20
2017-09-23T18:13:02.252Z,18.10
2017-09-23T18:15:29.740Z,18.10
2017-09-23T18:17:57.188Z,18.10
2017-09-23T18:20:24.669Z,18.00
2017-09-23T18:22:52.128Z,18.00
2017-09-23T18:25:19.593Z,17.90
2017-09-23T18:27:47.056Z,17.90
2017-09-23T18:30:14.508Z,17.80
2017-09-23T18:32:41.973Z,17.80
2017-09-23T18:35:09.437Z,17.80
2017-09-23T18:37:36.895Z,17.70
2017-09-23T18:40:04.344Z,17.70
2017-09-23T18:42:31.823Z,17.60
2017-09-23T18:44:59.272Z,17.50
2017-09-23T18:47:26.735Z,17.50
2017-09-23T18:49:54.200Z,17.40
2017-09-23T18:52:21.664Z,17.40
2017-09-23T18:54:49.135Z,17.30
2017-09-23T18:57:16.580Z,17.20
2017-09-23T18:59:44.043Z,17.00
2017-09-23T19:02:11.492Z,17.00
2017-09-23T19:04:38.973Z,16.90
2017-09-23T19:07:06.441Z,16.90
2017-09-23T19:09:33.897Z,16.80
2017-09-23T19:12:01.359Z,16.80
2017-09-23T19:14:28.803Z,16.60
2017-09-23T19:16:57.041Z,16.40
2017-09-23T19:19:24.500Z,16.40
2017-09-23T19:21:51.956Z,16.40
2017-09-23T19:24:19.409Z,16.50
2017-09-23T19:26:46.892Z,16.50
2017-09-23T19:29:14.344Z,16.40
2017-09-23T19:31:41.800Z,16.40
2017-09-23T19:34:09.258Z,16.40
2017-09-23T19:36:36.710Z,16.30
2017-09-23T19:39:04.169Z,16.20
2017-09-23T19:41:31.629Z,16.10
2017-09-23T19:43:59.117Z,16.10
2017-09-23T19:46:26.565Z,16.10
2017-09-23T19:48:54.051Z,16.20
2017-09-23T19:51:21.511Z,16.10
2017-09-23T19:53:48.961Z,16.00
2017-09-23T19:56:16.441Z,15.90
2017-09-23T19:58:43.892Z,15.90
2017-09-23T20:01:11.348Z,15.90
2017-09-23T20:06:32.077Z,15.80
2017-09-23T20:08:59.512Z,15.70
2017-09-23T20:11:26.981Z,15.60
2017-09-23T20:13:54.425Z,15.60
2017-09-23T20:22:31.441Z,15.60
2017-09-23T20:33:20.060Z,15.50
2017-09-23T20:35:47.502Z,15.40
2017-09-23T20:38:18.417Z,15.30
2017-09-23T20:40:45.864Z,15.30
2017-09-23T20:43:14.065Z,15.10
2017-09-23T20:45:41.509Z,15.10
2017-09-23T20:48:08.954Z,15.00
2017-09-23T20:50:37.165Z,15.00
2017-09-23T20:53:04.593Z,15.00
2017-09-23T20:55:32.816Z,15.00
2017-09-23T20:58:00.259Z,15.00
2017-09-23T21:00:27.719Z,14.90
2017-09-23T21:02:55.170Z,14.90
2017-09-23T21:05:23.393Z,14.90
2017-09-23T21:07:50.847Z,14.90
2017-09-23T21:10:18.306Z,14.80
2017-09-23T21:12:45.761Z,14.80
2017-09-23T21:15:13.206Z,14.80
2017-09-23T21:17:40.658Z,14.80
2017-09-23T21:20:08.878Z,14.70
2017-09-23T21:22:36.332Z,14.60
2017-09-23T21:25:03.789Z,14.50
2017-09-23T21:27:31.251Z,14.40
2017-09-23T21:29:58.686Z,14.30
2017-09-23T21:32:26.890Z,14.40
2017-09-23T21:34:54.342Z,14.40
2017-09-23T21:37:21.805Z,14.40
2017-09-23T21:39:49.250Z,14.30
2017-09-23T21:42:17.458Z,14.10
2017-09-23T21:44:44.908Z,14.10
2017-09-23T21:47:12.362Z,14.00
2017-09-23T21:49:40.569Z,14.00
2017-09-23T21:52:08.030Z,14.00
2017-09-23T21:54:35.481Z,14.10
2017-09-23T21:57:02.931Z,14.10
2017-09-23T21:59:31.125Z,14.20
2017-09-23T22:01:58.586Z,14.20
2017-09-23T22:04:26.033Z,14.20
2017-09-23T22:06:54.240Z,13.90
2017-09-23T22:09:21.670Z,13.90
2017-09-23T22:11:49.882Z,13.60
2017-09-23T22:14:17.322Z,13.60
2017-09-23T22:16:45.546Z,13.50
2017-09-23T22:19:12.991Z,13.50
2017-09-23T22:21:40.457Z,13.60
2017-09-23T22:24:07.901Z,13.60
2017-09-23T22:26:35.346Z,13.60
2017-09-23T22:29:03.562Z,13.50
2017-09-23T22:31:30.998Z,13.50
2017-09-23T22:33:58.441Z,13.50
2017-09-23T22:36:25.892Z,13.40
2017-09-23T22:38:53.351Z,13.30
2017-09-23T22:41:20.785Z,13.30
2017-09-23T22:43:48.253Z,13.30
2017-09-23T22:46:15.699Z,13.30
2017-09-23T22:48:43.133Z,13.30
2017-09-23T22:51:10.590Z,13.20
2017-09-23T22:53:38.806Z,13.10
2017-09-23T22:56:06.259Z,13.10
2017-09-23T22:58:33.702Z,13.20
2017-09-23T23:01:01.142Z,13.20
2017-09-23T23:03:29.361Z,13.30
2017-09-23T23:05:56.811Z,13.30
2017-09-23T23:08:24.316Z,13.20
2017-09-23T23:10:51.756Z,13.10
2017-09-23T23:13:19.207Z,13.00
2017-09-23T23:15:46.662Z,13.10
2017-09-23T23:18:14.182Z,13.10
2017-09-23T23:20:41.641Z,13.10
2017-09-23T23:23:09.075Z,13.00
2017-09-23T23:25:40.521Z,13.00
2017-09-23T23:28:07.962Z,13.00
2017-09-23T23:30:35.428Z,12.90
2017-09-23T23:33:03.617Z,12.80
2017-09-23T23:35:31.062Z,12.80
2017-09-23T23:37:59.270Z,12.60
2017-09-23T23:40:26.735Z,12.60
2017-09-23T23:42:54.192Z,12.70
2017-09-23T23:45:21.627Z,12.70
2017-09-23T23:47:49.833Z,12.70
2017-09-23T23:50:17.282Z,12.70
2017-09-23T23:52:44.741Z,12.80
2017-09-23T23:55:12.189Z,12.80
2017-09-23T23:57:40.402Z,12.80
